createdAt,value
2022-08-04T00:02:15.771Z,100
2022-08-04T00:07:17.204Z,98.84642
2022-08-04T00:12:18.736Z,100
2022-08-04T00:17:20.480Z,93.01072
2022-08-04T00:22:22.734Z,99.13231
2022-08-04T00:27:24.150Z,100
2022-08-04T00:32:34.135Z,97.1841
2022-08-04T00:37:36.107Z,100
2022-08-04T00:42:37.546Z,100
2022-08-04T00:47:51.178Z,97.16945
2022-08-04T00:52:52.932Z,92.92789
2022-08-04T00:57:55.732Z,91.09759
2022-08-04T01:02:57.401Z,91.8833
2022-08-04T01:07:58.865Z,92.35143
2022-08-04T01:13:00.447Z,93.20627
2022-08-04T01:18:02.119Z,94.04518
2022-08-04T01:23:03.590Z,93.67143
2022-08-04T01:28:05.049Z,92.72054
2022-08-04T01:33:08.100Z,91.9131
2022-08-04T01:38:18.311Z,91.33371
2022-08-04T01:43:23.160Z,91.50753
2022-08-04T01:48:24.932Z,92.93346
2022-08-04T01:53:26.378Z,92.95091
2022-08-04T01:58:27.872Z,96.08551
2022-08-04T02:04:20.873Z,94.54719
2022-08-04T02:09:24.778Z,92.30669
2022-08-04T02:14:26.260Z,92.68717
2022-08-04T02:19:28.134Z,94.67235
2022-08-04T02:24:29.795Z,94.80419
2022-08-04T02:29:32.181Z,93.68501
2022-08-04T02:34:34.394Z,95.27009
2022-08-04T02:39:41.514Z,93.41242
2022-08-04T02:44:50.368Z,100
2022-08-04T02:49:52.064Z,95.10229
2022-08-04T02:54:54.641Z,92.2797
2022-08-04T02:59:56.406Z,91.58704
2022-08-04T03:04:58.119Z,93.69663
2022-08-04T03:09:59.698Z,92.97354
2022-08-04T03:15:01.362Z,92.41997
2022-08-04T03:20:03.004Z,93.26672
2022-08-04T03:25:04.558Z,94.54669
2022-08-04T03:30:06.065Z,95.49628
2022-08-04T03:35:07.863Z,94.49763
2022-08-04T03:40:10.695Z,90.25245
2022-08-04T03:45:23.032Z,92.97177
2022-08-04T03:50:25.828Z,93.43275
2022-08-04T03:55:27.461Z,93.44473
2022-08-04T04:00:28.996Z,92.24707
2022-08-04T04:05:32.981Z,94.61019
2022-08-04T04:10:43.306Z,97.44912
2022-08-04T04:15:48.223Z,97.91688
2022-08-04T04:20:51.678Z,97.78372
2022-08-04T04:25:53.244Z,97.01941
2022-08-04T04:30:54.688Z,97.20808
2022-08-04T04:35:56.434Z,95.73287
2022-08-04T04:40:57.963Z,94.00554
2022-08-04T04:45:59.431Z,93.00533
2022-08-04T04:51:01.185Z,94.26367
2022-08-04T04:56:02.744Z,92.94563
2022-08-04T05:01:04.312Z,91.53253
2022-08-04T05:06:06.359Z,92.25139
2022-08-04T05:11:07.920Z,90.49221
2022-08-04T05:16:09.478Z,92.35728
2022-08-04T05:21:11.100Z,89.91302
2022-08-04T05:26:12.611Z,93.60742
2022-08-04T05:31:14.101Z,92.6283
2022-08-04T05:36:19.177Z,92.52889
2022-08-04T05:41:32.137Z,91.02709
2022-08-04T05:46:54.562Z,94.77437
2022-08-04T05:51:56.334Z,100
2022-08-04T05:56:57.765Z,96.5595
2022-08-04T06:01:59.329Z,96.41025
2022-08-04T06:07:01.024Z,97.60987
2022-08-04T06:12:04.380Z,99.70153
2022-08-04T06:17:06.220Z,96.21349
2022-08-04T06:23:36.049Z,100
2022-08-04T06:28:55.428Z,98.71983
2022-08-04T06:33:56.871Z,98.04078
2022-08-04T06:38:58.951Z,98.7496
2022-08-04T06:44:00.457Z,93.12171
2022-08-04T06:49:02.287Z,97.64507
2022-08-04T06:54:03.733Z,91.93851
2022-08-04T06:59:05.184Z,90.85015
2022-08-04T07:04:06.936Z,82.62212
2022-08-04T07:09:08.754Z,82.06875
2022-08-04T07:14:10.367Z,81.67062
2022-08-04T07:19:14.780Z,78.08479
2022-08-04T07:24:20.116Z,78.61097
2022-08-04T07:29:21.590Z,78.11393
2022-08-04T07:34:23.051Z,75.0011
2022-08-04T07:39:28.666Z,77.4008
2022-08-04T07:44:30.771Z,73.76716
2022-08-04T07:49:54.207Z,71.3587
2022-08-04T07:54:59.276Z,71.59784
2022-08-04T08:00:01.070Z,73.0216
2022-08-04T08:05:02.821Z,72.01691
2022-08-04T08:10:04.446Z,71.78957
2022-08-04T08:15:05.908Z,72.23703
2022-08-04T08:20:09.708Z,67.83561
2022-08-04T08:25:11.280Z,66.18771
2022-08-04T08:30:12.944Z,64.91436
2022-08-04T08:35:15.869Z,63.48258
2022-08-04T08:40:17.839Z,62.97598
2022-08-04T08:45:33.896Z,62.99315
2022-08-04T08:50:35.367Z,59.84797
2022-08-04T08:55:36.972Z,59.21679
2022-08-04T09:00:38.535Z,59.81064
2022-08-04T09:05:40.205Z,58.93848
2022-08-04T09:10:42.238Z,58.93787
2022-08-04T09:15:43.814Z,58.30909
2022-08-04T09:20:45.304Z,58.76586
2022-08-04T09:25:47.005Z,59.56402
2022-08-04T09:30:48.670Z,61.05889
2022-08-04T09:35:50.169Z,59.81275
2022-08-04T09:40:53.176Z,57.59563
2022-08-04T09:45:56.930Z,54.03157
2022-08-04T09:50:58.380Z,55.00457
2022-08-04T09:56:03.003Z,56.08768
2022-08-04T10:01:05.135Z,55.3675
2022-08-04T10:06:06.733Z,51.7516
2022-08-04T10:11:09.038Z,52.17919
2022-08-04T10:16:10.511Z,52.73612
2022-08-04T10:21:15.513Z,51.38816
2022-08-04T10:26:17.518Z,49.93173
2022-08-04T10:31:18.975Z,48.83435
2022-08-04T10:36:20.664Z,50.388
2022-08-04T10:41:22.497Z,50.96478
2022-08-04T10:46:24.010Z,50.58772
2022-08-04T10:51:25.695Z,50.25264
2022-08-04T10:56:27.346Z,49.52231
2022-08-04T11:02:00.838Z,48.18657
2022-08-04T11:07:04.770Z,46.62984
2022-08-04T11:12:07.333Z,47.225
2022-08-04T11:17:09.046Z,46.48508
2022-08-04T11:22:10.553Z,46.88361
2022-08-04T11:27:12.433Z,45.57937
2022-08-04T11:32:13.987Z,45.44298
2022-08-04T11:37:15.958Z,44.29649
2022-08-04T11:42:17.849Z,46.52757
2022-08-04T11:47:19.523Z,44.59968
2022-08-04T11:52:21.752Z,43.46095
2022-08-04T11:57:25.620Z,43.26261
2022-08-04T12:02:38.460Z,41.20189
2022-08-04T12:07:41.666Z,42.06262
2022-08-04T12:12:43.825Z,38.69431
2022-08-04T12:17:52.672Z,36.43769
2022-08-04T12:22:55.373Z,36.30482
2022-08-04T12:27:57.628Z,36.39428
2022-08-04T12:32:59.481Z,36.75571
2022-08-04T12:38:00.936Z,35.61394
2022-08-04T12:43:02.829Z,37.56686
2022-08-04T12:48:04.384Z,37.63569
2022-08-04T12:53:05.852Z,37.41843
2022-08-04T12:58:07.345Z,34.96679
2022-08-04T13:03:10.223Z,36.90408
2022-08-04T13:08:13.414Z,36.1351
2022-08-04T13:13:15.074Z,35.85002
2022-08-04T13:18:16.736Z,35.76521
2022-08-04T13:23:21.720Z,34.02681
2022-08-04T13:28:23.759Z,35.04605
2022-08-04T13:33:25.245Z,34.79355
2022-08-04T13:38:26.851Z,34.93731
2022-08-04T13:44:16.792Z,36.00938
2022-08-04T13:49:43.073Z,33.66102
2022-08-04T13:55:02.774Z,33.44288
2022-08-04T14:00:04.735Z,32.48779
2022-08-04T14:05:06.403Z,32.58949
2022-08-04T14:10:20.737Z,32.1503
2022-08-04T14:15:22.622Z,32.05163
2022-08-04T14:20:24.335Z,32.3728
2022-08-04T14:25:30.255Z,33.06976
2022-08-04T14:30:37.681Z,33.62944
2022-08-04T14:35:50.147Z,33.60557
2022-08-04T14:40:52.560Z,34.4549
2022-08-04T14:45:55.472Z,34.27201
2022-08-04T14:50:57.495Z,34.71572
2022-08-04T14:55:59.247Z,34.20111
2022-08-04T15:01:01.241Z,34.47864
2022-08-04T15:06:15.286Z,34.79766
2022-08-04T15:11:23.452Z,34.58058
2022-08-04T15:16:25.928Z,34.49547
2022-08-04T15:21:27.561Z,35.67996
2022-08-04T15:26:29.681Z,35.80636
2022-08-04T15:32:06.536Z,35.73214
2022-08-04T15:37:10.723Z,36.78276
2022-08-04T15:42:17.489Z,36.41882
2022-08-04T15:47:23.114Z,37.27842
2022-08-04T15:52:25.170Z,37.22558
2022-08-04T15:57:33.940Z,38.62054
2022-08-04T16:02:36.044Z,39.39785
2022-08-04T16:07:38.066Z,40.22935
2022-08-04T16:12:53.814Z,41.04059
2022-08-04T16:17:56.649Z,40.81538
2022-08-04T16:22:58.402Z,40.605
2022-08-04T16:28:00.315Z,41.55404
2022-08-04T16:33:02.490Z,40.69059
2022-08-04T16:38:04.182Z,41.67712
2022-08-04T16:43:05.935Z,43.37725
2022-08-04T16:48:08.241Z,46.2334
2022-08-04T16:53:10.024Z,47.36336
2022-08-04T16:58:53.016Z,46.87983
2022-08-04T17:03:57.765Z,48.42642
2022-08-04T17:08:59.604Z,48.08692
2022-08-04T17:14:05.403Z,49.0549
2022-08-04T17:19:24.303Z,50.88433
2022-08-04T17:24:28.410Z,50.30697
2022-08-04T17:29:43.966Z,49.30003
2022-08-04T17:34:46.951Z,50.10238
2022-08-04T17:39:50.762Z,50.29602
2022-08-04T17:44:52.604Z,50.91784
2022-08-04T17:49:54.932Z,51.77977
2022-08-04T17:54:57.535Z,52.15761
2022-08-04T18:00:04.436Z,51.91139
2022-08-04T18:05:11.879Z,51.30365
2022-08-04T18:10:31.087Z,51.6596
2022-08-04T18:15:44.112Z,52.1584
2022-08-04T18:20:50.100Z,51.19339
2022-08-04T18:25:52.424Z,52.7254
2022-08-04T18:30:56.294Z,53.68812
2022-08-04T18:36:32.664Z,52.9002
2022-08-04T18:42:01.416Z,53.48321
2022-08-04T18:47:19.534Z,53.78643
2022-08-04T18:52:31.989Z,54.62288
2022-08-04T18:57:59.001Z,55.77599
2022-08-04T19:03:02.788Z,55.72117
2022-08-04T19:08:33.530Z,55.99522
2022-08-04T19:13:36.998Z,56.1664
2022-08-04T19:18:39.089Z,55.46598
2022-08-04T19:24:10.860Z,55.9799
2022-08-04T19:29:37.125Z,55.48745
2022-08-04T19:34:39.218Z,56.64074
2022-08-04T19:39:41.050Z,56.87204
2022-08-04T19:44:43.835Z,56.84546
2022-08-04T19:50:03.760Z,55.92132
2022-08-04T19:55:10.038Z,55.62791
2022-08-04T20:00:13.258Z,57.51749
2022-08-04T20:05:17.986Z,56.75767
2022-08-04T20:10:52.513Z,58.4112
2022-08-04T20:15:58.086Z,59.7883
2022-08-04T20:21:00.124Z,59.34486
2022-08-04T20:26:02.676Z,59.09471
2022-08-04T20:31:05.206Z,62.23043
2022-08-04T20:36:09.748Z,62.92249
2022-08-04T20:41:11.822Z,64.08276
2022-08-04T20:46:18.189Z,62.49667
2022-08-04T20:51:32.087Z,63.00147
2022-08-04T20:56:35.780Z,63.09904
2022-08-04T21:01:49.000Z,62.5869
2022-08-04T21:06:51.557Z,63.35414
2022-08-04T21:11:53.644Z,62.98685
2022-08-04T21:16:56.458Z,65.078
2022-08-04T21:21:58.705Z,63.82098
2022-08-04T21:27:01.014Z,63.18797
2022-08-04T21:32:04.077Z,65.85904
2022-08-04T21:37:09.253Z,62.9896
2022-08-04T21:42:28.384Z,64.2641
2022-08-04T21:47:46.361Z,64.73324
2022-08-04T21:52:51.474Z,68.21159
2022-08-04T21:57:54.085Z,66.68356
2022-08-04T22:02:55.941Z,65.71823
2022-08-04T22:07:58.421Z,67.54389
2022-08-04T22:13:06.715Z,67.28066
2022-08-04T22:18:12.992Z,65.78241
2022-08-04T22:23:16.861Z,66.04647
2022-08-04T22:28:21.254Z,66.74723
2022-08-04T22:33:54.978Z,73.75584
2022-08-04T22:39:06.484Z,69.79324
2022-08-04T22:44:13.604Z,70.52439
2022-08-04T22:49:17.310Z,69.4719
2022-08-04T22:54:18.956Z,68.42
2022-08-04T22:59:21.446Z,69.65498
2022-08-04T23:04:23.142Z,72.25776
2022-08-04T23:09:49.159Z,69.64635
2022-08-04T23:14:53.039Z,68.69458
2022-08-04T23:19:57.868Z,71.39374
2022-08-04T23:25:00.441Z,71.30903
2022-08-04T23:30:05.720Z,71.30315
2022-08-04T23:35:07.149Z,71.64324
2022-08-04T23:40:32.278Z,72.04891
2022-08-04T23:46:04.022Z,70.49231
2022-08-04T23:51:15.111Z,74.44501
2022-08-04T23:56:19.678Z,72.55413
